createdAt,value
2019-03-25T00:00:09.275Z,4.06
2019-03-25T00:02:42.850Z,4.08
2019-03-25T00:05:14.286Z,4.09
2019-03-25T00:07:45.445Z,4.07
2019-03-25T00:10:16.561Z,4.00
2019-03-25T00:12:48.130Z,4.00
2019-03-25T00:15:19.311Z,4.01
2019-03-25T00:17:50.622Z,3.92
2019-03-25T00:20:22.073Z,3.84
2019-03-25T00:22:53.644Z,3.87
2019-03-25T00:25:25.040Z,3.81
2019-03-25T00:27:56.187Z,3.84
2019-03-25T00:30:27.373Z,3.92
2019-03-25T00:32:58.519Z,3.79
2019-03-25T00:35:30.070Z,3.65
2019-03-25T00:38:02.056Z,3.60
2019-03-25T00:40:33.582Z,3.57
2019-03-25T00:43:04.968Z,3.54
2019-03-25T00:45:36.214Z,3.62
2019-03-25T00:48:07.841Z,3.62
2019-03-25T00:50:39.110Z,3.54
2019-03-25T00:53:10.421Z,3.68
2019-03-25T00:55:41.890Z,3.61
2019-03-25T00:58:14.065Z,3.52
2019-03-25T01:00:46.271Z,3.61
2019-03-25T01:03:18.355Z,3.60
2019-03-25T01:05:49.595Z,3.60
2019-03-25T01:08:21.776Z,3.77
2019-03-25T01:10:52.819Z,3.72
2019-03-25T01:13:24.409Z,3.65
2019-03-25T01:15:55.852Z,3.66
2019-03-25T01:18:26.979Z,3.64
2019-03-25T01:20:58.164Z,3.73
2019-03-25T01:23:29.442Z,3.73
2019-03-25T01:26:00.953Z,3.69
2019-03-25T01:28:32.254Z,3.74
2019-03-25T01:31:03.578Z,3.73
2019-03-25T01:33:36.070Z,3.82
2019-03-25T01:36:07.474Z,3.80
2019-03-25T01:38:38.928Z,3.74
2019-03-25T01:41:10.089Z,3.77
2019-03-25T01:43:41.524Z,3.75
2019-03-25T01:46:12.914Z,3.72
2019-03-25T01:48:44.511Z,3.66
2019-03-25T01:51:15.731Z,3.72
2019-03-25T01:53:48.008Z,3.69
2019-03-25T01:56:19.417Z,3.51
2019-03-25T01:58:50.869Z,3.48
2019-03-25T02:01:22.098Z,3.34
2019-03-25T02:03:54.441Z,3.27
2019-03-25T02:06:26.026Z,3.23
2019-03-25T02:08:57.106Z,3.28
2019-03-25T02:11:28.546Z,3.24
2019-03-25T02:13:59.733Z,3.18
2019-03-25T02:16:31.522Z,3.09
2019-03-25T02:19:03.731Z,2.96
2019-03-25T02:21:35.154Z,2.91
2019-03-25T02:24:06.475Z,2.91
2019-03-25T02:26:37.988Z,2.88
2019-03-25T02:29:09.334Z,2.77
2019-03-25T02:31:40.765Z,2.77
2019-03-25T02:34:12.139Z,2.63
2019-03-25T02:36:43.762Z,2.61
2019-03-25T02:39:15.146Z,2.56
2019-03-25T02:41:46.587Z,2.47
2019-03-25T02:44:18.012Z,2.50
2019-03-25T02:46:50.457Z,2.45
2019-03-25T02:49:22.106Z,2.37
2019-03-25T02:51:53.524Z,2.38
2019-03-25T02:54:24.684Z,2.30
2019-03-25T02:56:55.895Z,2.21
2019-03-25T02:59:27.110Z,2.15
2019-03-25T03:01:58.428Z,2.10
2019-03-25T03:04:30.855Z,2.11
2019-03-25T03:07:02.119Z,2.04
2019-03-25T03:09:33.598Z,2.02
2019-03-25T03:12:05.116Z,1.95
2019-03-25T03:14:36.957Z,1.86
2019-03-25T03:17:09.137Z,1.82
2019-03-25T03:19:40.659Z,1.76
2019-03-25T03:22:12.186Z,1.70
2019-03-25T03:24:43.608Z,1.65
2019-03-25T03:27:15.091Z,1.69
2019-03-25T03:29:46.850Z,1.66
2019-03-25T03:32:18.157Z,1.62
2019-03-25T03:34:49.551Z,1.71
2019-03-25T03:37:22.217Z,1.67
2019-03-25T03:39:53.432Z,1.61
2019-03-25T03:42:25.611Z,1.70
2019-03-25T03:44:56.849Z,1.63
2019-03-25T03:47:28.528Z,1.57
2019-03-25T03:49:59.942Z,1.56
2019-03-25T03:52:31.494Z,1.54
2019-03-25T03:55:05.290Z,1.53
2019-03-25T03:57:37.342Z,1.69
2019-03-25T04:00:10.437Z,1.71
2019-03-25T04:02:43.173Z,1.71
2019-03-25T04:05:15.126Z,1.74
2019-03-25T04:07:46.337Z,1.76
2019-03-25T04:10:17.844Z,1.80
2019-03-25T04:12:49.017Z,1.82
2019-03-25T04:15:29.647Z,1.82
2019-03-25T04:18:01.915Z,1.92
2019-03-25T04:20:32.997Z,2.03
2019-03-25T04:23:04.811Z,2.11
2019-03-25T04:25:37.373Z,2.20
2019-03-25T04:28:10.140Z,2.24
2019-03-25T04:30:41.610Z,2.25
2019-03-25T04:33:13.081Z,2.30
2019-03-25T04:35:44.501Z,2.41
2019-03-25T04:38:15.977Z,2.52
2019-03-25T04:40:46.986Z,2.58
2019-03-25T04:43:18.561Z,2.70
2019-03-25T04:45:49.821Z,2.98
2019-03-25T04:48:21.014Z,3.05
2019-03-25T04:50:52.378Z,3.10
2019-03-25T04:53:24.179Z,3.20
2019-03-25T04:55:55.584Z,3.40
2019-03-25T04:58:27.224Z,3.51
2019-03-25T05:00:58.835Z,3.64
2019-03-25T05:03:30.327Z,3.50
2019-03-25T05:06:03.482Z,3.93
2019-03-25T05:08:35.862Z,4.13
2019-03-25T05:11:08.286Z,4.40
2019-03-25T05:13:39.549Z,4.55
2019-03-25T05:16:10.700Z,4.70
2019-03-25T05:18:42.598Z,4.87
2019-03-25T05:21:14.235Z,5.08
2019-03-25T05:23:45.782Z,5.25
2019-03-25T05:26:17.645Z,5.41
2019-03-25T05:28:49.422Z,5.54
2019-03-25T05:31:23.184Z,5.68
2019-03-25T05:33:54.713Z,5.79
2019-03-25T05:36:26.239Z,5.88
2019-03-25T05:38:57.729Z,5.95
2019-03-25T05:41:29.176Z,6.05
2019-03-25T05:44:00.626Z,6.17
2019-03-25T05:46:32.041Z,6.25
2019-03-25T05:49:03.372Z,6.41
2019-03-25T05:51:34.981Z,6.53
2019-03-25T05:54:06.800Z,6.58
2019-03-25T05:56:38.261Z,6.62
2019-03-25T05:59:10.444Z,6.74
2019-03-25T06:01:44.097Z,6.93
2019-03-25T06:04:14.896Z,6.89
2019-03-25T06:06:47.275Z,6.99
2019-03-25T06:09:19.818Z,7.07
2019-03-25T06:11:51.720Z,7.24
2019-03-25T06:14:23.140Z,7.46
2019-03-25T06:16:54.388Z,7.65
2019-03-25T06:19:25.831Z,7.77
2019-03-25T06:21:57.237Z,7.90
2019-03-25T06:24:28.967Z,8.04
2019-03-25T06:27:00.166Z,8.26
2019-03-25T06:29:32.095Z,8.32
2019-03-25T06:32:04.732Z,8.57
2019-03-25T06:34:35.993Z,8.68
2019-03-25T06:37:07.470Z,8.88
2019-03-25T06:39:38.878Z,9.09
2019-03-25T06:42:10.961Z,9.17
2019-03-25T06:44:42.294Z,9.14
2019-03-25T06:47:13.599Z,9.29
2019-03-25T06:49:44.808Z,9.32
2019-03-25T06:52:17.048Z,9.42
2019-03-25T06:54:49.075Z,9.53
2019-03-25T06:57:25.817Z,9.62
2019-03-25T06:59:54.907Z,9.86
2019-03-25T07:02:44.821Z,9.87
2019-03-25T07:05:16.547Z,10.05
2019-03-25T07:07:48.062Z,10.00
2019-03-25T07:10:30.521Z,10.09
2019-03-25T07:13:02.792Z,10.23
2019-03-25T07:15:34.168Z,10.42
2019-03-25T07:18:05.577Z,10.45
2019-03-25T07:20:36.886Z,10.42
2019-03-25T07:23:08.155Z,10.61
2019-03-25T07:25:40.702Z,10.64
2019-03-25T07:28:11.790Z,10.71
2019-03-25T07:30:43.348Z,10.70
2019-03-25T07:33:14.594Z,10.63
2019-03-25T07:35:46.656Z,10.43
2019-03-25T07:38:18.211Z,10.48
2019-03-25T07:40:51.462Z,10.71
2019-03-25T07:43:25.164Z,10.89
2019-03-25T07:45:57.308Z,10.96
2019-03-25T07:48:28.497Z,11.16
2019-03-25T07:50:59.812Z,11.60
2019-03-25T07:53:31.914Z,11.87
2019-03-25T07:56:03.434Z,11.88
2019-03-25T07:58:36.884Z,12.11
2019-03-25T08:01:08.420Z,12.55
2019-03-25T08:03:41.846Z,12.80
2019-03-25T08:06:13.443Z,13.13
2019-03-25T08:08:45.585Z,13.37
2019-03-25T08:11:17.910Z,13.61
2019-03-25T08:13:52.857Z,13.85
2019-03-25T08:16:25.260Z,13.79
2019-03-25T08:18:57.543Z,13.78
2019-03-25T08:21:29.723Z,13.62
2019-03-25T08:24:01.107Z,13.04
2019-03-25T08:26:32.382Z,12.87
2019-03-25T08:29:03.629Z,12.97
2019-03-25T08:31:34.916Z,13.33
2019-03-25T08:34:06.193Z,13.83
2019-03-25T08:36:37.495Z,13.98
2019-03-25T08:39:08.652Z,13.84
2019-03-25T08:41:39.937Z,13.52
2019-03-25T08:44:12.248Z,13.32
2019-03-25T08:46:43.355Z,13.51
2019-03-25T08:49:15.131Z,13.63
2019-03-25T08:51:52.110Z,13.99
2019-03-25T08:54:27.864Z,14.20
2019-03-25T08:56:59.408Z,13.97
2019-03-25T08:59:31.732Z,14.18
2019-03-25T09:02:03.931Z,14.58
2019-03-25T09:04:35.304Z,14.65
2019-03-25T09:07:08.696Z,14.80
2019-03-25T09:09:41.668Z,15.08
2019-03-25T09:12:14.017Z,14.94
2019-03-25T09:14:54.657Z,14.81
2019-03-25T09:17:28.310Z,14.75
2019-03-25T09:20:01.545Z,14.30
2019-03-25T09:22:34.956Z,13.72
2019-03-25T09:25:07.555Z,14.15
2019-03-25T09:27:39.997Z,13.80
2019-03-25T09:30:11.695Z,14.03
2019-03-25T09:32:43.071Z,14.71
2019-03-25T09:35:15.468Z,14.69
2019-03-25T09:37:48.496Z,15.20
2019-03-25T09:40:23.396Z,15.38
2019-03-25T09:42:54.765Z,15.55
2019-03-25T09:45:30.999Z,15.42
2019-03-25T09:48:02.682Z,15.26
2019-03-25T09:50:34.167Z,15.71
2019-03-25T09:53:05.597Z,15.55
2019-03-25T09:55:37.140Z,15.76
2019-03-25T09:58:08.415Z,15.49
2019-03-25T10:00:39.574Z,15.60
2019-03-25T10:03:11.847Z,15.41
2019-03-25T10:05:42.887Z,14.88
2019-03-25T10:08:19.304Z,14.33
2019-03-25T10:10:51.593Z,14.42
2019-03-25T10:13:23.328Z,14.29
2019-03-25T10:15:56.802Z,14.55
2019-03-25T10:18:28.120Z,14.49
2019-03-25T10:21:00.003Z,15.08
2019-03-25T10:23:32.031Z,15.50
2019-03-25T10:26:03.223Z,15.31
2019-03-25T10:28:34.596Z,15.72
2019-03-25T10:31:05.770Z,15.34
2019-03-25T10:33:37.023Z,15.61
2019-03-25T10:36:08.474Z,15.67
2019-03-25T10:38:44.356Z,16.16
2019-03-25T10:41:16.689Z,16.56
2019-03-25T10:43:49.494Z,16.53
2019-03-25T10:46:22.005Z,17.01
2019-03-25T10:48:54.250Z,16.89
2019-03-25T10:51:25.617Z,17.06
2019-03-25T10:53:57.040Z,17.80
2019-03-25T10:56:29.462Z,17.94
2019-03-25T10:59:01.858Z,18.15
2019-03-25T11:01:33.069Z,17.92
2019-03-25T11:04:04.387Z,17.40
2019-03-25T11:06:35.724Z,17.43
2019-03-25T11:09:07.451Z,17.54
2019-03-25T11:11:39.677Z,17.67
2019-03-25T11:14:12.036Z,18.51
2019-03-25T11:16:43.199Z,18.95
2019-03-25T11:19:14.544Z,20.35
2019-03-25T11:21:53.468Z,20.27
2019-03-25T11:24:26.241Z,20.33
2019-03-25T11:26:58.488Z,20.58
2019-03-25T11:29:30.670Z,18.89
2019-03-25T11:32:02.300Z,20.10
2019-03-25T11:34:33.986Z,20.62
2019-03-25T11:37:05.145Z,20.73
2019-03-25T11:39:37.476Z,21.41
2019-03-25T11:42:11.677Z,21.59
2019-03-25T11:44:47.049Z,21.29
2019-03-25T11:47:18.350Z,21.29
2019-03-25T11:49:52.240Z,21.41
2019-03-25T11:52:30.117Z,21.37
2019-03-25T11:55:02.503Z,20.92
2019-03-25T11:57:35.546Z,20.19
2019-03-25T12:00:08.591Z,19.54
2019-03-25T12:02:41.453Z,19.68
2019-03-25T12:05:12.812Z,19.97
2019-03-25T12:07:47.072Z,19.84
2019-03-25T12:10:19.371Z,19.95
2019-03-25T12:12:51.587Z,20.12
2019-03-25T12:15:24.953Z,19.90
2019-03-25T12:18:01.523Z,20.70
2019-03-25T12:20:33.047Z,21.46
2019-03-25T12:23:10.815Z,22.28
2019-03-25T12:25:42.268Z,23.27
2019-03-25T12:28:13.698Z,23.85
2019-03-25T12:30:44.921Z,23.30
2019-03-25T12:33:17.220Z,23.40
2019-03-25T12:35:48.635Z,23.49
2019-03-25T12:38:20.255Z,23.56
2019-03-25T12:40:52.632Z,23.46
2019-03-25T12:43:23.704Z,21.82
2019-03-25T12:45:54.958Z,22.24
2019-03-25T12:48:26.809Z,22.09
2019-03-25T12:50:58.592Z,21.29
2019-03-25T12:53:29.764Z,20.45
2019-03-25T12:56:02.247Z,19.23
2019-03-25T12:58:33.520Z,17.52
2019-03-25T13:01:08.659Z,17.07
2019-03-25T13:03:40.958Z,15.86
2019-03-25T13:06:14.365Z,15.78
2019-03-25T13:08:45.986Z,15.97
2019-03-25T13:11:17.394Z,15.73
2019-03-25T13:13:56.468Z,15.55
2019-03-25T13:16:36.745Z,15.63
2019-03-25T13:19:20.194Z,15.97
2019-03-25T13:21:56.391Z,16.11
2019-03-25T13:24:41.585Z,16.87
2019-03-25T13:27:18.282Z,16.70
2019-03-25T13:29:59.210Z,17.10
2019-03-25T13:32:37.235Z,17.71
2019-03-25T13:35:42.144Z,16.63
2019-03-25T13:38:22.824Z,16.99
2019-03-25T13:40:59.107Z,16.79
2019-03-25T13:43:35.567Z,16.19
2019-03-25T13:46:10.481Z,15.70
2019-03-25T13:48:44.904Z,15.37
2019-03-25T13:51:19.410Z,15.30
2019-03-25T13:53:59.834Z,14.83
2019-03-25T13:56:32.207Z,14.43
2019-03-25T13:59:03.637Z,14.09
2019-03-25T14:01:35.503Z,13.83
2019-03-25T14:04:06.781Z,13.70
2019-03-25T14:06:40.194Z,13.49
2019-03-25T14:09:11.832Z,13.32
2019-03-25T14:11:44.364Z,13.36
2019-03-25T14:14:16.678Z,13.00
2019-03-25T14:16:49.081Z,12.84
2019-03-25T14:19:32.442Z,12.70
2019-03-25T14:22:03.866Z,12.69
2019-03-25T14:24:39.479Z,12.50
2019-03-25T14:27:13.006Z,12.18
2019-03-25T14:29:44.385Z,12.39
2019-03-25T14:32:15.707Z,12.36
2019-03-25T14:34:47.153Z,12.24
2019-03-25T14:37:21.226Z,12.08
2019-03-25T14:39:53.394Z,11.94
2019-03-25T14:42:25.414Z,11.85
2019-03-25T14:45:00.655Z,12.01
2019-03-25T14:47:33.403Z,12.04
2019-03-25T14:50:06.727Z,12.04
2019-03-25T14:52:38.074Z,12.04
2019-03-25T14:55:10.087Z,12.00
2019-03-25T14:57:41.639Z,11.93
2019-03-25T15:00:13.257Z,11.77
2019-03-25T15:02:45.065Z,11.60
2019-03-25T15:05:16.443Z,11.68
2019-03-25T15:07:48.775Z,11.58
2019-03-25T15:10:21.533Z,11.61
2019-03-25T15:12:57.023Z,11.44
2019-03-25T15:15:31.333Z,11.37
2019-03-25T15:18:03.708Z,11.28
2019-03-25T15:20:34.981Z,11.31
2019-03-25T15:23:08.527Z,11.22
2019-03-25T15:25:44.386Z,11.24
2019-03-25T15:28:15.714Z,11.17
2019-03-25T15:30:47.286Z,11.15
2019-03-25T15:33:20.694Z,11.08
2019-03-25T15:35:52.911Z,10.99
2019-03-25T15:38:25.549Z,10.93
2019-03-25T15:40:57.071Z,10.95
2019-03-25T15:43:28.761Z,10.94
2019-03-25T15:46:00.662Z,10.88
2019-03-25T15:48:32.870Z,10.90
2019-03-25T15:51:04.063Z,10.86
2019-03-25T15:53:35.466Z,10.93
2019-03-25T15:56:08.701Z,10.87
2019-03-25T15:58:40.128Z,10.80
2019-03-25T16:01:12.964Z,10.78
2019-03-25T16:03:44.138Z,10.74
2019-03-25T16:06:15.742Z,10.86
2019-03-25T16:08:46.980Z,10.78
2019-03-25T16:11:18.763Z,10.76
2019-03-25T16:13:49.877Z,10.72
2019-03-25T16:16:22.023Z,10.74
2019-03-25T16:18:53.185Z,10.74
2019-03-25T16:21:24.587Z,10.67
2019-03-25T16:23:55.761Z,10.62
2019-03-25T16:26:26.974Z,10.63
2019-03-25T16:28:58.419Z,10.65
2019-03-25T16:31:29.553Z,10.64
2019-03-25T16:34:00.789Z,10.62
2019-03-25T16:36:32.107Z,10.62
2019-03-25T16:39:04.303Z,10.63
2019-03-25T16:41:37.089Z,10.61
2019-03-25T16:44:08.384Z,10.62
2019-03-25T16:46:39.612Z,10.56
2019-03-25T16:49:11.840Z,10.59
2019-03-25T16:51:43.062Z,10.53
2019-03-25T16:54:15.268Z,10.57
2019-03-25T16:56:47.126Z,10.52
2019-03-25T16:59:18.441Z,10.50
2019-03-25T17:01:49.939Z,10.41
2019-03-25T17:04:21.405Z,10.35
2019-03-25T17:06:53.604Z,10.27
2019-03-25T17:09:26.154Z,10.23
2019-03-25T17:11:57.834Z,10.19
2019-03-25T17:14:29.085Z,10.17
2019-03-25T17:17:02.470Z,10.03
2019-03-25T17:19:33.728Z,9.90
2019-03-25T17:22:06.038Z,9.74
2019-03-25T17:24:37.601Z,9.61
2019-03-25T17:27:08.760Z,9.47
2019-03-25T17:29:41.197Z,9.35
2019-03-25T17:32:13.013Z,9.18
2019-03-25T17:34:44.278Z,9.05
2019-03-25T17:37:17.393Z,8.90
2019-03-25T17:39:48.881Z,8.83
2019-03-25T17:42:20.029Z,8.77
2019-03-25T17:44:51.204Z,8.67
2019-03-25T17:47:22.365Z,8.61
2019-03-25T17:49:55.301Z,8.52
2019-03-25T17:52:28.190Z,8.50
2019-03-25T17:54:59.677Z,8.50
2019-03-25T17:57:31.191Z,8.39
2019-03-25T18:00:03.047Z,8.36
2019-03-25T18:02:39.531Z,8.32
2019-03-25T18:05:11.523Z,8.20
2019-03-25T18:07:42.870Z,8.16
2019-03-25T18:10:16.293Z,8.10
2019-03-25T18:12:47.676Z,8.10
2019-03-25T18:15:19.235Z,8.07
2019-03-25T18:17:51.711Z,7.98
2019-03-25T18:20:23.036Z,8.04
2019-03-25T18:22:54.231Z,8.06
2019-03-25T18:25:25.589Z,8.00
2019-03-25T18:27:56.877Z,8.00
2019-03-25T18:30:35.822Z,8.06
2019-03-25T18:33:07.083Z,8.03
2019-03-25T18:35:38.307Z,8.04
2019-03-25T18:38:10.477Z,8.01
2019-03-25T18:40:41.761Z,7.94
2019-03-25T18:43:13.376Z,7.99
2019-03-25T18:45:47.941Z,7.95
2019-03-25T18:48:19.372Z,7.83
2019-03-25T18:50:50.940Z,7.96
2019-03-25T18:53:22.195Z,7.94
2019-03-25T18:55:55.261Z,7.97
2019-03-25T18:58:27.121Z,7.97
2019-03-25T19:01:00.919Z,7.95
2019-03-25T19:03:35.360Z,7.95
2019-03-25T19:06:06.851Z,8.02
2019-03-25T19:08:45.191Z,8.01
2019-03-25T19:11:17.846Z,8.02
2019-03-25T19:13:49.025Z,8.02
2019-03-25T19:16:20.171Z,8.07
2019-03-25T19:18:52.708Z,8.06
2019-03-25T19:21:24.130Z,8.02
2019-03-25T19:23:55.513Z,8.00
2019-03-25T19:26:26.716Z,8.03
2019-03-25T19:29:01.405Z,8.00
2019-03-25T19:31:34.974Z,8.02
2019-03-25T19:34:06.503Z,8.00
2019-03-25T19:36:38.010Z,8.06
2019-03-25T19:39:09.105Z,8.10
2019-03-25T19:41:40.426Z,8.17
2019-03-25T19:44:11.911Z,8.07
2019-03-25T19:46:43.468Z,8.01
2019-03-25T19:49:15.177Z,7.96
2019-03-25T19:51:46.462Z,7.97
2019-03-25T19:54:19.320Z,8.03
2019-03-25T19:56:50.916Z,7.98
2019-03-25T19:59:22.280Z,7.93
2019-03-25T20:01:53.737Z,7.94
2019-03-25T20:04:25.403Z,7.85
2019-03-25T20:06:56.740Z,7.85
2019-03-25T20:09:28.209Z,7.93
2019-03-25T20:11:59.508Z,7.86
2019-03-25T20:14:30.624Z,7.96
2019-03-25T20:17:01.966Z,7.90
2019-03-25T20:19:34.879Z,7.77
2019-03-25T20:22:06.089Z,7.81
2019-03-25T20:24:37.714Z,7.84
2019-03-25T20:27:08.909Z,7.85
2019-03-25T20:29:40.593Z,7.84
2019-03-25T20:32:11.894Z,7.83
2019-03-25T20:34:43.150Z,7.82
2019-03-25T20:37:14.627Z,7.78
2019-03-25T20:39:45.915Z,7.79
2019-03-25T20:42:17.036Z,7.76
2019-03-25T20:44:48.501Z,7.84
2019-03-25T20:47:20.033Z,7.86
2019-03-25T20:49:51.338Z,7.87
2019-03-25T20:52:24.478Z,7.81
2019-03-25T20:54:59.648Z,7.72
2019-03-25T20:57:32.015Z,7.70
2019-03-25T21:00:04.531Z,7.75
2019-03-25T21:02:44.768Z,7.76
2019-03-25T21:05:09.183Z,7.77
2019-03-25T21:07:40.806Z,7.77
2019-03-25T21:10:11.975Z,7.73
2019-03-25T21:12:43.356Z,7.72
2019-03-25T21:15:16.179Z,7.74
2019-03-25T21:17:47.403Z,7.70
2019-03-25T21:20:19.768Z,7.70
2019-03-25T21:22:51.224Z,7.63
2019-03-25T21:25:22.374Z,7.56
2019-03-25T21:27:53.621Z,7.54
2019-03-25T21:30:28.198Z,7.52
2019-03-25T21:32:58.836Z,7.51
2019-03-25T21:35:30.008Z,7.47
2019-03-25T21:38:01.071Z,7.44
2019-03-25T21:40:34.242Z,7.41
2019-03-25T21:43:05.274Z,7.42
2019-03-25T21:45:37.026Z,7.33
2019-03-25T21:48:08.325Z,7.31
2019-03-25T21:50:39.435Z,7.31
2019-03-25T21:53:10.555Z,7.29
2019-03-25T21:55:41.902Z,7.28
2019-03-25T21:58:13.021Z,7.27
2019-03-25T22:00:44.349Z,7.21
2019-03-25T22:03:15.619Z,7.15
2019-03-25T22:05:47.192Z,7.14
2019-03-25T22:08:18.520Z,7.10
2019-03-25T22:10:49.666Z,7.07
2019-03-25T22:13:20.879Z,6.99
2019-03-25T22:15:52.115Z,6.98
2019-03-25T22:18:23.050Z,6.99
2019-03-25T22:20:54.960Z,6.93
2019-03-25T22:23:25.983Z,6.91
2019-03-25T22:25:56.930Z,6.90
2019-03-25T22:28:27.903Z,6.87
2019-03-25T22:30:58.935Z,6.86
2019-03-25T22:33:29.904Z,6.84
2019-03-25T22:36:01.082Z,6.78
2019-03-25T22:38:32.280Z,6.77
2019-03-25T22:41:03.471Z,6.72
2019-03-25T22:43:34.602Z,6.72
2019-03-25T22:46:05.779Z,6.67
2019-03-25T22:48:36.968Z,6.66
2019-03-25T22:51:08.006Z,6.65
2019-03-25T22:53:39.162Z,6.65
2019-03-25T22:56:10.338Z,6.62
2019-03-25T22:58:41.354Z,6.64
2019-03-25T23:01:12.513Z,6.60
2019-03-25T23:03:43.659Z,6.56
2019-03-25T23:06:15.091Z,6.53
2019-03-25T23:08:46.295Z,6.48
2019-03-25T23:11:18.591Z,6.46
2019-03-25T23:13:49.648Z,6.45
2019-03-25T23:16:21.777Z,6.45
2019-03-25T23:18:52.838Z,6.40
2019-03-25T23:21:26.019Z,6.36
2019-03-25T23:23:57.500Z,6.32
2019-03-25T23:26:28.919Z,6.25
2019-03-25T23:29:00.255Z,6.22
2019-03-25T23:31:31.471Z,6.21
2019-03-25T23:34:02.626Z,6.27
2019-03-25T23:36:33.708Z,6.31
2019-03-25T23:39:06.847Z,6.31
2019-03-25T23:41:38.110Z,6.31
2019-03-25T23:44:09.244Z,6.32
2019-03-25T23:46:40.236Z,6.36
2019-03-25T23:49:12.536Z,6.34
2019-03-25T23:51:43.718Z,6.32
2019-03-25T23:54:15.253Z,6.32
2019-03-25T23:56:46.616Z,6.33
2019-03-25T23:59:17.561Z,6.30
